sensor_id;sensor_type;location;lat;lon;timestamp;pressure;altitude;pressure_sealevel;temperature;humidity
16544;BME280;8384;47.996;7.786;2022-12-07T00:01:27;98906.47;;;1.64;100.00
16544;BME280;8384;47.996;7.786;2022-12-07T00:03:55;98894.81;;;1.57;100.00
16544;BME280;8384;47.996;7.786;2022-12-07T00:06:29;98899.78;;;1.60;100.00
16544;BME280;8384;47.996;7.786;2022-12-07T00:08:54;98942.03;;;1.88;100.00
16544;BME280;8384;47.996;7.786;2022-12-07T00:11:21;98951.78;;;1.89;100.00
16544;BME280;8384;47.996;7.786;2022-12-07T00:13:51;98921.00;;;1.76;100.00
16544;BME280;8384;47.996;7.786;2022-12-07T00:16:18;98945.19;;;1.98;100.00
16544;BME280;8384;47.996;7.786;2022-12-07T00:18:44;98944.97;;;1.93;100.00
16544;BME280;8384;47.996;7.786;2022-12-07T00:21:12;98901.03;;;1.57;100.00
16544;BME280;8384;47.996;7.786;2022-12-07T00:23:39;98868.84;;;1.42;100.00
16544;BME280;8384;47.996;7.786;2022-12-07T00:26:09;98885.41;;;1.46;100.00
16544;BME280;8384;47.996;7.786;2022-12-07T00:28:35;98947.81;;;1.85;100.00
16544;BME280;8384;47.996;7.786;2022-12-07T00:31:05;98947.25;;;1.96;100.00
16544;BME280;8384;47.996;7.786;2022-12-07T00:33:32;98921.53;;;2.00;100.00
16544;BME280;8384;47.996;7.786;2022-12-07T00:35:58;98863.13;;;1.65;100.00
16544;BME280;8384;47.996;7.786;2022-12-07T00:38:31;98919.91;;;2.06;100.00
16544;BME280;8384;47.996;7.786;2022-12-07T00:41:02;98924.91;;;2.09;100.00
16544;BME280;8384;47.996;7.786;2022-12-07T00:43:28;98872.50;;;1.76;100.00
16544;BME280;8384;47.996;7.786;2022-12-07T00:45:54;98825.56;;;1.50;100.00
16544;BME280;8384;47.996;7.786;2022-12-07T00:48:20;98919.53;;;2.09;100.00
16544;BME280;8384;47.996;7.786;2022-12-07T00:50:46;98907.63;;;1.97;100.00
16544;BME280;8384;47.996;7.786;2022-12-07T00:53:11;98736.13;;;0.78;100.00
16544;BME280;8384;47.996;7.786;2022-12-07T00:55:36;98914.28;;;1.94;100.00
16544;BME280;8384;47.996;7.786;2022-12-07T00:58:02;98896.81;;;1.83;100.00
16544;BME280;8384;47.996;7.786;2022-12-07T01:00:28;98922.13;;;1.89;100.00
16544;BME280;8384;47.996;7.786;2022-12-07T01:02:54;98918.41;;;1.90;100.00
16544;BME280;8384;47.996;7.786;2022-12-07T01:05:19;98911.97;;;1.91;100.00
16544;BME280;8384;47.996;7.786;2022-12-07T01:07:44;98908.25;;;1.92;100.00
16544;BME280;8384;47.996;7.786;2022-12-07T01:10:11;98918.81;;;1.93;100.00
16544;BME280;8384;47.996;7.786;2022-12-07T01:12:37;98914.75;;;2.11;100.00
16544;BME280;8384;47.996;7.786;2022-12-07T01:15:02;98909.41;;;2.31;100.00
16544;BME280;8384;47.996;7.786;2022-12-07T01:17:28;98920.22;;;2.38;100.00
16544;BME280;8384;47.996;7.786;2022-12-07T01:19:53;98887.00;;;2.24;100.00
16544;BME280;8384;47.996;7.786;2022-12-07T01:22:19;98926.44;;;2.38;100.00
16544;BME280;8384;47.996;7.786;2022-12-07T01:24:44;98921.88;;;2.39;100.00
16544;BME280;8384;47.996;7.786;2022-12-07T01:27:12;98920.44;;;2.43;100.00
16544;BME280;8384;47.996;7.786;2022-12-07T01:29:38;98923.75;;;2.52;100.00
16544;BME280;8384;47.996;7.786;2022-12-07T01:32:03;98926.69;;;2.50;100.00
16544;BME280;8384;47.996;7.786;2022-12-07T01:34:29;98930.22;;;2.51;100.00
16544;BME280;8384;47.996;7.786;2022-12-07T01:36:55;98926.47;;;2.52;100.00
16544;BME280;8384;47.996;7.786;2022-12-07T01:39:21;98930.22;;;2.51;100.00
16544;BME280;8384;47.996;7.786;2022-12-07T01:41:46;98934.38;;;2.60;100.00
16544;BME280;8384;47.996;7.786;2022-12-07T01:51:47;98933.09;;;2.43;100.00
16544;BME280;8384;47.996;7.786;2022-12-07T01:54:14;98944.69;;;2.36;100.00
16544;BME280;8384;47.996;7.786;2022-12-07T01:56:46;98944.94;;;2.42;100.00
16544;BME280;8384;47.996;7.786;2022-12-07T01:59:13;98944.53;;;2.45;100.00
16544;BME280;8384;47.996;7.786;2022-12-07T02:01:40;98946.41;;;2.51;100.00
16544;BME280;8384;47.996;7.786;2022-12-07T02:04:06;98930.16;;;2.31;100.00
16544;BME280;8384;47.996;7.786;2022-12-07T02:06:33;98944.94;;;2.48;100.00
16544;BME280;8384;47.996;7.786;2022-12-07T02:09:00;98948.03;;;2.38;100.00
16544;BME280;8384;47.996;7.786;2022-12-07T02:11:26;98917.06;;;2.21;100.00
16544;BME280;8384;47.996;7.786;2022-12-07T02:13:52;98927.84;;;2.21;100.00
16544;BME280;8384;47.996;7.786;2022-12-07T02:19:12;98945.06;;;2.20;100.00
16544;BME280;8384;47.996;7.786;2022-12-07T02:21:51;98940.47;;;2.14;100.00
16544;BME280;8384;47.996;7.786;2022-12-07T02:24:35;98930.94;;;2.11;100.00
16544;BME280;8384;47.996;7.786;2022-12-07T02:32:26;98932.53;;;2.05;100.00
16544;BME280;8384;47.996;7.786;2022-12-07T02:40:19;98941.66;;;2.04;100.00
16544;BME280;8384;47.996;7.786;2022-12-07T02:42:50;98944.59;;;2.03;100.00
16544;BME280;8384;47.996;7.786;2022-12-07T02:45:19;98914.00;;;1.82;100.00
16544;BME280;8384;47.996;7.786;2022-12-07T02:47:48;98908.81;;;1.80;100.00
16544;BME280;8384;47.996;7.786;2022-12-07T02:50:19;98936.50;;;2.03;100.00
16544;BME280;8384;47.996;7.786;2022-12-07T02:52:45;98930.84;;;1.91;100.00
16544;BME280;8384;47.996;7.786;2022-12-07T02:55:11;98938.34;;;2.02;100.00
16544;BME280;8384;47.996;7.786;2022-12-07T03:00:27;98912.59;;;1.93;100.00
16544;BME280;8384;47.996;7.786;2022-12-07T03:03:12;98938.34;;;2.02;100.00
16544;BME280;8384;47.996;7.786;2022-12-07T03:10:58;98933.19;;;2.14;100.00
16544;BME280;8384;47.996;7.786;2022-12-07T03:14:03;98935.72;;;2.16;100.00
16544;BME280;8384;47.996;7.786;2022-12-07T03:16:39;98926.75;;;2.08;100.00
16544;BME280;8384;47.996;7.786;2022-12-07T03:19:13;98907.00;;;1.94;100.00
16544;BME280;8384;47.996;7.786;2022-12-07T03:21:44;98931.75;;;2.12;100.00
16544;BME280;8384;47.996;7.786;2022-12-07T03:24:15;98912.22;;;1.96;100.00
16544;BME280;8384;47.996;7.786;2022-12-07T03:26:49;98916.72;;;1.89;100.00
16544;BME280;8384;47.996;7.786;2022-12-07T03:29:22;98927.78;;;2.07;100.00
16544;BME280;8384;47.996;7.786;2022-12-07T03:31:59;98932.56;;;2.12;100.00
16544;BME280;8384;47.996;7.786;2022-12-07T03:34:32;98934.75;;;2.44;100.00
16544;BME280;8384;47.996;7.786;2022-12-07T03:37:09;98888.97;;;1.95;100.00
16544;BME280;8384;47.996;7.786;2022-12-07T03:39:41;98881.47;;;1.84;100.00
16544;BME280;8384;47.996;7.786;2022-12-07T03:42:11;98906.88;;;2.16;100.00
16544;BME280;8384;47.996;7.786;2022-12-07T03:44:37;98920.16;;;2.11;100.00
16544;BME280;8384;47.996;7.786;2022-12-07T03:50:06;98906.22;;;2.07;100.00
16544;BME280;8384;47.996;7.786;2022-12-07T03:52:51;98886.69;;;1.99;100.00
16544;BME280;8384;47.996;7.786;2022-12-07T03:55:29;98893.78;;;2.06;100.00
16544;BME280;8384;47.996;7.786;2022-12-07T03:58:01;98906.47;;;2.19;100.00
16544;BME280;8384;47.996;7.786;2022-12-07T04:00:28;98903.75;;;2.13;100.00
16544;BME280;8384;47.996;7.786;2022-12-07T04:02:55;98912.66;;;2.13;100.00
16544;BME280;8384;47.996;7.786;2022-12-07T04:05:21;98907.88;;;2.08;100.00
16544;BME280;8384;47.996;7.786;2022-12-07T04:07:47;98901.03;;;2.06;100.00
16544;BME280;8384;47.996;7.786;2022-12-07T04:10:13;98905.19;;;2.08;100.00
16544;BME280;8384;47.996;7.786;2022-12-07T04:12:38;98906.66;;;2.11;100.00
16544;BME280;8384;47.996;7.786;2022-12-07T04:15:05;98909.72;;;2.01;100.00
16544;BME280;8384;47.996;7.786;2022-12-07T04:17:30;98909.69;;;1.88;100.00
16544;BME280;8384;47.996;7.786;2022-12-07T04:19:56;98908.56;;;1.75;100.00
16544;BME280;8384;47.996;7.786;2022-12-07T04:22:22;98864.91;;;1.45;100.00
16544;BME280;8384;47.996;7.786;2022-12-07T04:24:48;98897.09;;;1.60;100.00
16544;BME280;8384;47.996;7.786;2022-12-07T04:27:14;98910.56;;;1.60;100.00
16544;BME280;8384;47.996;7.786;2022-12-07T04:29:39;98905.84;;;1.69;100.00
16544;BME280;8384;47.996;7.786;2022-12-07T04:32:05;98899.63;;;1.68;100.00
16544;BME280;8384;47.996;7.786;2022-12-07T04:34:31;98900.69;;;1.74;100.00
16544;BME280;8384;47.996;7.786;2022-12-07T04:36:57;98899.28;;;1.78;100.00
16544;BME280;8384;47.996;7.786;2022-12-07T04:39:28;98889.31;;;1.78;100.00
16544;BME280;8384;47.996;7.786;2022-12-07T04:41:55;98883.06;;;1.71;100.00
16544;BME280;8384;47.996;7.786;2022-12-07T04:44:22;98870.19;;;1.67;100.00
16544;BME280;8384;47.996;7.786;2022-12-07T04:46:48;98887.41;;;1.72;100.00
16544;BME280;8384;47.996;7.786;2022-12-07T04:49:15;98885.97;;;1.76;100.00
16544;BME280;8384;47.996;7.786;2022-12-07T04:51:41;98872.31;;;1.78;100.00
16544;BME280;8384;47.996;7.786;2022-12-07T04:54:06;98874.38;;;1.76;100.00
16544;BME280;8384;47.996;7.786;2022-12-07T04:56:32;98865.25;;;1.70;100.00
16544;BME280;8384;47.996;7.786;2022-12-07T04:58:59;98856.72;;;1.67;100.00
16544;BME280;8384;47.996;7.786;2022-12-07T05:01:25;98882.22;;;1.71;100.00
16544;BME280;8384;47.996;7.786;2022-12-07T05:03:50;98857.44;;;1.40;100.00
16544;BME280;8384;47.996;7.786;2022-12-07T05:06:16;98889.38;;;1.50;100.00
16544;BME280;8384;47.996;7.786;2022-12-07T05:08:41;98886.72;;;1.57;100.00
16544;BME280;8384;47.996;7.786;2022-12-07T05:11:08;98882.38;;;1.62;100.00
16544;BME280;8384;47.996;7.786;2022-12-07T05:13:35;98886.72;;;1.57;100.00
16544;BME280;8384;47.996;7.786;2022-12-07T05:16:00;98856.19;;;1.43;100.00
16544;BME280;8384;47.996;7.786;2022-12-07T05:18:25;98883.22;;;1.63;100.00
16544;BME280;8384;47.996;7.786;2022-12-07T05:20:51;98887.38;;;1.65;100.00
16544;BME280;8384;47.996;7.786;2022-12-07T05:23:17;98865.16;;;1.57;100.00
16544;BME280;8384;47.996;7.786;2022-12-07T05:25:43;98877.44;;;1.66;100.00
16544;BME280;8384;47.996;7.786;2022-12-07T05:28:08;98859.72;;;1.43;100.00
16544;BME280;8384;47.996;7.786;2022-12-07T05:30:34;98876.63;;;1.72;100.00
16544;BME280;8384;47.996;7.786;2022-12-07T05:32:59;98886.09;;;2.03;100.00
16544;BME280;8384;47.996;7.786;2022-12-07T05:35:24;98873.84;;;2.01;100.00
16544;BME280;8384;47.996;7.786;2022-12-07T05:37:50;98862.50;;;1.63;100.00
16544;BME280;8384;47.996;7.786;2022-12-07T05:40:16;98878.25;;;1.67;100.00
16544;BME280;8384;47.996;7.786;2022-12-07T05:42:41;98864.22;;;1.78;100.00
16544;BME280;8384;47.996;7.786;2022-12-07T05:45:08;98808.72;;;1.42;100.00
16544;BME280;8384;47.996;7.786;2022-12-07T05:47:33;98872.09;;;1.79;100.00
16544;BME280;8384;47.996;7.786;2022-12-07T05:49:59;98867.13;;;1.76;100.00
16544;BME280;8384;47.996;7.786;2022-12-07T05:52:24;98837.53;;;1.41;100.00
16544;BME280;8384;47.996;7.786;2022-12-07T05:54:50;98875.13;;;1.56;100.00
16544;BME280;8384;47.996;7.786;2022-12-07T05:57:15;98861.59;;;1.49;100.00
16544;BME280;8384;47.996;7.786;2022-12-07T05:59:41;98871.22;;;1.72;100.00
16544;BME280;8384;47.996;7.786;2022-12-07T06:02:08;98876.44;;;1.74;100.00
16544;BME280;8384;47.996;7.786;2022-12-07T06:04:42;98878.72;;;1.70;100.00
16544;BME280;8384;47.996;7.786;2022-12-07T06:07:09;98876.22;;;1.69;100.00
16544;BME280;8384;47.996;7.786;2022-12-07T06:09:35;98885.16;;;1.76;100.00
16544;BME280;8384;47.996;7.786;2022-12-07T06:12:00;98867.06;;;1.63;100.00
16544;BME280;8384;47.996;7.786;2022-12-07T06:14:45;98838.97;;;1.37;100.00
16544;BME280;8384;47.996;7.786;2022-12-07T06:17:11;98886.25;;;1.46;100.00
16544;BME280;8384;47.996;7.786;2022-12-07T06:19:37;98887.31;;;1.52;100.00
16544;BME280;8384;47.996;7.786;2022-12-07T06:22:03;98884.63;;;1.52;100.00
16544;BME280;8384;47.996;7.786;2022-12-07T06:24:30;98881.28;;;1.43;100.00
16544;BME280;8384;47.996;7.786;2022-12-07T06:26:55;98872.50;;;1.34;100.00
16544;BME280;8384;47.996;7.786;2022-12-07T06:29:21;98863.13;;;1.24;100.00
16544;BME280;8384;47.996;7.786;2022-12-07T06:31:47;98830.50;;;1.05;100.00
16544;BME280;8384;47.996;7.786;2022-12-07T06:34:15;98846.53;;;1.20;100.00
16544;BME280;8384;47.996;7.786;2022-12-07T06:36:41;98870.84;;;1.33;100.00
16544;BME280;8384;47.996;7.786;2022-12-07T06:39:06;98868.06;;;1.20;100.00
16544;BME280;8384;47.996;7.786;2022-12-07T06:41:34;98874.41;;;1.06;100.00
16544;BME280;8384;47.996;7.786;2022-12-07T06:43:59;98880.59;;;1.06;100.00
16544;BME280;8384;47.996;7.786;2022-12-07T06:46:25;98890.38;;;1.42;100.00
16544;BME280;8384;47.996;7.786;2022-12-07T06:48:50;98885.75;;;1.01;100.00
16544;BME280;8384;47.996;7.786;2022-12-07T06:51:16;98902.38;;;0.83;100.00
16544;BME280;8384;47.996;7.786;2022-12-07T06:53:41;98901.13;;;0.79;100.00
16544;BME280;8384;47.996;7.786;2022-12-07T06:56:07;98894.50;;;0.81;100.00
16544;BME280;8384;47.996;7.786;2022-12-07T06:58:32;98898.97;;;0.74;100.00
16544;BME280;8384;47.996;7.786;2022-12-07T07:00:57;98887.41;;;0.73;100.00
16544;BME280;8384;47.996;7.786;2022-12-07T07:03:23;98862.25;;;0.59;100.00
16544;BME280;8384;47.996;7.786;2022-12-07T07:05:48;98902.13;;;0.78;100.00
16544;BME280;8384;47.996;7.786;2022-12-07T07:08:14;98900.91;;;0.80;100.00
16544;BME280;8384;47.996;7.786;2022-12-07T07:10:40;98895.84;;;0.70;100.00
16544;BME280;8384;47.996;7.786;2022-12-07T07:13:06;98907.91;;;0.74;100.00
16544;BME280;8384;47.996;7.786;2022-12-07T07:15:32;98910.72;;;0.66;100.00
16544;BME280;8384;47.996;7.786;2022-12-07T07:17:57;98909.88;;;0.44;100.00
16544;BME280;8384;47.996;7.786;2022-12-07T07:20:23;98905.72;;;0.41;100.00
16544;BME280;8384;47.996;7.786;2022-12-07T07:22:48;98918.78;;;0.44;100.00
16544;BME280;8384;47.996;7.786;2022-12-07T07:25:14;98913.34;;;0.59;100.00
16544;BME280;8384;47.996;7.786;2022-12-07T07:27:40;98912.72;;;0.36;100.00
16544;BME280;8384;47.996;7.786;2022-12-07T07:30:05;98913.34;;;0.38;100.00
16544;BME280;8384;47.996;7.786;2022-12-07T07:32:31;98929.56;;;0.44;100.00
16544;BME280;8384;47.996;7.786;2022-12-07T07:34:56;98911.03;;;0.35;100.00
16544;BME280;8384;47.996;7.786;2022-12-07T07:37:21;98910.66;;;0.38;100.00
16544;BME280;8384;47.996;7.786;2022-12-07T07:39:47;98925.94;;;0.37;100.00
16544;BME280;8384;47.996;7.786;2022-12-07T07:42:12;98923.13;;;0.24;100.00
16544;BME280;8384;47.996;7.786;2022-12-07T07:44:37;98902.31;;;0.11;100.00
16544;BME280;8384;47.996;7.786;2022-12-07T07:47:03;98918.78;;;0.23;100.00
16544;BME280;8384;47.996;7.786;2022-12-07T07:49:28;98932.47;;;0.28;100.00
16544;BME280;8384;47.996;7.786;2022-12-07T07:51:53;98913.91;;;-0.04;100.00
16544;BME280;8384;47.996;7.786;2022-12-07T07:54:19;98945.06;;;-0.09;100.00
16544;BME280;8384;47.996;7.786;2022-12-07T07:56:44;98941.91;;;-0.13;100.00
16544;BME280;8384;47.996;7.786;2022-12-07T07:59:09;98942.53;;;-0.11;100.00
16544;BME280;8384;47.996;7.786;2022-12-07T08:01:35;98947.44;;;0.01;100.00
16544;BME280;8384;47.996;7.786;2022-12-07T08:04:00;98932.00;;;0.24;100.00
16544;BME280;8384;47.996;7.786;2022-12-07T08:06:25;98949.78;;;0.40;100.00
16544;BME280;8384;47.996;7.786;2022-12-07T08:08:51;98940.38;;;0.51;100.00
16544;BME280;8384;47.996;7.786;2022-12-07T08:11:17;98946.78;;;0.72;100.00
16544;BME280;8384;47.996;7.786;2022-12-07T08:13:45;98951.00;;;0.81;100.00
16544;BME280;8384;47.996;7.786;2022-12-07T08:16:11;98955.25;;;0.91;100.00
16544;BME280;8384;47.996;7.786;2022-12-07T08:18:39;98958.88;;;1.04;100.00
16544;BME280;8384;47.996;7.786;2022-12-07T08:21:06;98952.25;;;1.07;100.00
16544;BME280;8384;47.996;7.786;2022-12-07T08:23:31;98959.00;;;0.96;100.00
16544;BME280;8384;47.996;7.786;2022-12-07T08:26:01;98969.53;;;1.19;100.00
16544;BME280;8384;47.996;7.786;2022-12-07T08:28:28;98966.56;;;1.36;100.00
16544;BME280;8384;47.996;7.786;2022-12-07T08:30:59;98950.41;;;1.36;100.00
16544;BME280;8384;47.996;7.786;2022-12-07T08:33:24;98934.75;;;1.18;100.00
16544;BME280;8384;47.996;7.786;2022-12-07T08:35:50;98958.47;;;1.29;100.00
16544;BME280;8384;47.996;7.786;2022-12-07T08:38:15;98960.31;;;1.57;100.00
16544;BME280;8384;47.996;7.786;2022-12-07T08:40:40;98967.31;;;1.87;100.00
16544;BME280;8384;47.996;7.786;2022-12-07T08:43:05;98940.16;;;1.88;100.00
16544;BME280;8384;47.996;7.786;2022-12-07T08:45:31;98934.06;;;1.73;100.00
16544;BME280;8384;47.996;7.786;2022-12-07T08:48:06;98965.38;;;2.16;100.00
16544;BME280;8384;47.996;7.786;2022-12-07T08:50:34;98939.13;;;1.89;100.00
16544;BME280;8384;47.996;7.786;2022-12-07T08:53:01;98967.47;;;2.27;100.00
16544;BME280;8384;47.996;7.786;2022-12-07T08:55:28;98961.41;;;2.05;100.00
16544;BME280;8384;47.996;7.786;2022-12-07T08:57:54;98965.31;;;2.02;100.00
16544;BME280;8384;47.996;7.786;2022-12-07T09:00:20;98954.31;;;1.97;100.00
16544;BME280;8384;47.996;7.786;2022-12-07T09:02:46;98969.75;;;2.17;100.00
16544;BME280;8384;47.996;7.786;2022-12-07T09:05:12;98950.63;;;2.12;100.00
16544;BME280;8384;47.996;7.786;2022-12-07T09:07:40;98963.19;;;2.39;100.00
16544;BME280;8384;47.996;7.786;2022-12-07T09:10:07;98949.28;;;2.43;100.00
16544;BME280;8384;47.996;7.786;2022-12-07T09:12:34;98966.41;;;2.77;100.00
16544;BME280;8384;47.996;7.786;2022-12-07T09:14:59;98949.34;;;2.76;100.00
16544;BME280;8384;47.996;7.786;2022-12-07T09:17:26;98966.00;;;2.87;100.00
16544;BME280;8384;47.996;7.786;2022-12-07T09:19:51;98934.22;;;3.02;100.00
16544;BME280;8384;47.996;7.786;2022-12-07T09:22:16;98961.63;;;3.46;99.31
16544;BME280;8384;47.996;7.786;2022-12-07T09:24:42;98952.22;;;3.69;97.25
16544;BME280;8384;47.996;7.786;2022-12-07T09:27:08;98973.78;;;4.02;95.44
16544;BME280;8384;47.996;7.786;2022-12-07T09:29:33;98968.31;;;4.23;93.70
16544;BME280;8384;47.996;7.786;2022-12-07T09:31:58;98966.38;;;4.37;88.43
16544;BME280;8384;47.996;7.786;2022-12-07T09:34:24;98971.56;;;4.38;87.21
16544;BME280;8384;47.996;7.786;2022-12-07T09:36:50;98971.34;;;4.40;88.26
16544;BME280;8384;47.996;7.786;2022-12-07T09:39:15;98964.41;;;3.98;87.83
16544;BME280;8384;47.996;7.786;2022-12-07T09:41:43;98975.03;;;4.00;87.71
16544;BME280;8384;47.996;7.786;2022-12-07T09:44:15;98943.66;;;3.85;86.91
16544;BME280;8384;47.996;7.786;2022-12-07T09:46:43;98970.06;;;3.97;85.61
16544;BME280;8384;47.996;7.786;2022-12-07T09:49:11;98967.13;;;4.05;83.13
16544;BME280;8384;47.996;7.786;2022-12-07T09:51:39;98940.75;;;3.87;82.85
16544;BME280;8384;47.996;7.786;2022-12-07T09:54:04;98937.19;;;4.00;84.63
16544;BME280;8384;47.996;7.786;2022-12-07T09:56:30;98961.78;;;4.37;84.01
16544;BME280;8384;47.996;7.786;2022-12-07T09:59:00;98960.47;;;4.01;85.60
16544;BME280;8384;47.996;7.786;2022-12-07T10:01:29;98951.75;;;3.99;87.11
16544;BME280;8384;47.996;7.786;2022-12-07T10:04:00;98952.09;;;4.16;86.20
16544;BME280;8384;47.996;7.786;2022-12-07T10:06:26;98951.59;;;4.32;84.65
16544;BME280;8384;47.996;7.786;2022-12-07T10:08:52;98941.91;;;4.57;81.36
16544;BME280;8384;47.996;7.786;2022-12-07T10:11:17;98936.03;;;4.67;80.87
16544;BME280;8384;47.996;7.786;2022-12-07T10:13:46;98941.94;;;4.82;79.15
16544;BME280;8384;47.996;7.786;2022-12-07T10:16:37;98941.19;;;4.75;80.59
16544;BME280;8384;47.996;7.786;2022-12-07T10:19:32;98938.47;;;4.75;81.03
16544;BME280;8384;47.996;7.786;2022-12-07T10:24:28;98907.16;;;4.79;75.88
16544;BME280;8384;47.996;7.786;2022-12-07T10:26:54;98923.69;;;5.03;73.95
16544;BME280;8384;47.996;7.786;2022-12-07T10:29:28;98921.06;;;5.40;70.99
16544;BME280;8384;47.996;7.786;2022-12-07T10:31:55;98929.53;;;5.69;67.46
16544;BME280;8384;47.996;7.786;2022-12-07T10:34:27;98922.09;;;5.83;68.35
16544;BME280;8384;47.996;7.786;2022-12-07T10:37:14;98918.91;;;5.86;66.72
16544;BME280;8384;47.996;7.786;2022-12-07T10:39:45;98922.31;;;5.81;65.34
16544;BME280;8384;47.996;7.786;2022-12-07T10:44:44;98897.47;;;6.03;66.32
16544;BME280;8384;47.996;7.786;2022-12-07T10:47:20;98906.13;;;6.42;63.35
16544;BME280;8384;47.996;7.786;2022-12-07T10:55:34;98889.19;;;6.28;59.39
16544;BME280;8384;47.996;7.786;2022-12-07T11:09:51;98871.03;;;6.29;57.17
16544;BME280;8384;47.996;7.786;2022-12-07T11:15:18;98855.09;;;5.65;60.51
16544;BME280;8384;47.996;7.786;2022-12-07T11:18:11;98865.41;;;6.12;61.82
16544;BME280;8384;47.996;7.786;2022-12-07T11:20:44;98863.63;;;6.79;58.26
16544;BME280;8384;47.996;7.786;2022-12-07T11:26:10;98853.91;;;6.71;59.73
16544;BME280;8384;47.996;7.786;2022-12-07T11:29:00;98837.56;;;6.47;57.86
16544;BME280;8384;47.996;7.786;2022-12-07T11:34:49;98852.75;;;6.79;56.92
16544;BME280;8384;47.996;7.786;2022-12-07T11:37:25;98832.19;;;6.83;58.19
16544;BME280;8384;47.996;7.786;2022-12-07T11:39:56;98829.03;;;6.86;56.65
16544;BME280;8384;47.996;7.786;2022-12-07T11:42:29;98826.75;;;6.59;56.95
16544;BME280;8384;47.996;7.786;2022-12-07T11:45:16;98834.25;;;6.45;57.41
16544;BME280;8384;47.996;7.786;2022-12-07T11:47:48;98833.47;;;6.80;56.39
16544;BME280;8384;47.996;7.786;2022-12-07T11:53:37;98803.97;;;6.84;57.13
16544;BME280;8384;47.996;7.786;2022-12-07T11:58:49;98813.16;;;6.71;58.10
16544;BME280;8384;47.996;7.786;2022-12-07T12:04:06;98821.72;;;6.32;56.72
16544;BME280;8384;47.996;7.786;2022-12-07T12:06:41;98795.13;;;6.22;57.29
16544;BME280;8384;47.996;7.786;2022-12-07T12:09:21;98808.38;;;6.42;57.37
16544;BME280;8384;47.996;7.786;2022-12-07T12:20:01;98802.38;;;5.61;60.11
16544;BME280;8384;47.996;7.786;2022-12-07T12:22:40;98788.75;;;5.30;60.02
16544;BME280;8384;47.996;7.786;2022-12-07T12:25:19;98783.03;;;5.57;61.10
16544;BME280;8384;47.996;7.786;2022-12-07T12:27:47;98773.75;;;5.65;59.90
16544;BME280;8384;47.996;7.786;2022-12-07T12:30:35;98796.75;;;5.62;58.10
16544;BME280;8384;47.996;7.786;2022-12-07T12:33:04;98791.97;;;5.58;57.50
16544;BME280;8384;47.996;7.786;2022-12-07T12:35:37;98797.28;;;5.52;55.63
16544;BME280;8384;47.996;7.786;2022-12-07T12:40:56;98786.56;;;5.58;56.64
16544;BME280;8384;47.996;7.786;2022-12-07T12:43:50;98774.94;;;5.69;56.30
16544;BME280;8384;47.996;7.786;2022-12-07T12:49:24;98772.28;;;5.81;55.03
16544;BME280;8384;47.996;7.786;2022-12-07T12:52:01;98773.69;;;6.02;54.83
16544;BME280;8384;47.996;7.786;2022-12-07T12:57:28;98760.22;;;5.95;52.49
16544;BME280;8384;47.996;7.786;2022-12-07T13:04:59;98760.78;;;5.97;53.12
16544;BME280;8384;47.996;7.786;2022-12-07T13:08:01;98771.00;;;5.83;53.42
16544;BME280;8384;47.996;7.786;2022-12-07T13:15:49;98762.69;;;5.48;54.47
16544;BME280;8384;47.996;7.786;2022-12-07T13:23:58;98732.88;;;5.48;53.87
16544;BME280;8384;47.996;7.786;2022-12-07T13:29:12;98753.19;;;5.57;53.76
16544;BME280;8384;47.996;7.786;2022-12-07T13:31:39;98754.00;;;5.58;54.42
16544;BME280;8384;47.996;7.786;2022-12-07T13:34:38;98757.44;;;5.34;54.65
16544;BME280;8384;47.996;7.786;2022-12-07T13:37:14;98753.97;;;5.27;55.99
16544;BME280;8384;47.996;7.786;2022-12-07T13:39:52;98736.50;;;5.23;56.59
16544;BME280;8384;47.996;7.786;2022-12-07T13:42:32;98722.50;;;5.26;57.73
16544;BME280;8384;47.996;7.786;2022-12-07T13:45:14;98712.88;;;5.30;57.63
16544;BME280;8384;47.996;7.786;2022-12-07T13:47:53;98730.84;;;5.43;57.79
16544;BME280;8384;47.996;7.786;2022-12-07T13:50:27;98728.31;;;5.30;56.88
16544;BME280;8384;47.996;7.786;2022-12-07T13:53:00;98745.41;;;5.30;58.10
16544;BME280;8384;47.996;7.786;2022-12-07T13:55:27;98724.78;;;5.10;57.82
16544;BME280;8384;47.996;7.786;2022-12-07T13:57:54;98740.06;;;5.23;58.21
16544;BME280;8384;47.996;7.786;2022-12-07T14:00:22;98734.56;;;5.30;58.00
16544;BME280;8384;47.996;7.786;2022-12-07T14:03:02;98737.03;;;5.32;57.11
16544;BME280;8384;47.996;7.786;2022-12-07T14:05:32;98736.31;;;5.24;56.07
16544;BME280;8384;47.996;7.786;2022-12-07T14:08:00;98736.34;;;5.18;56.34
16544;BME280;8384;47.996;7.786;2022-12-07T14:13:35;98707.94;;;4.90;56.90
16544;BME280;8384;47.996;7.786;2022-12-07T14:16:03;98711.00;;;4.93;53.24
16544;BME280;8384;47.996;7.786;2022-12-07T14:18:35;98722.22;;;4.97;55.40
16544;BME280;8384;47.996;7.786;2022-12-07T14:21:03;98724.09;;;4.97;55.25
16544;BME280;8384;47.996;7.786;2022-12-07T14:23:28;98732.69;;;4.93;56.63
16544;BME280;8384;47.996;7.786;2022-12-07T14:26:06;98657.34;;;4.46;58.14
16544;BME280;8384;47.996;7.786;2022-12-07T14:28:36;98722.41;;;4.77;58.31
16544;BME280;8384;47.996;7.786;2022-12-07T14:31:03;98702.28;;;4.73;58.98
16544;BME280;8384;47.996;7.786;2022-12-07T14:33:29;98713.03;;;4.79;59.05
16544;BME280;8384;47.996;7.786;2022-12-07T14:35:55;98720.78;;;4.76;59.66
16544;BME280;8384;47.996;7.786;2022-12-07T14:38:25;98714.59;;;4.69;60.07
16544;BME280;8384;47.996;7.786;2022-12-07T14:40:52;98687.63;;;4.37;61.64
16544;BME280;8384;47.996;7.786;2022-12-07T14:43:18;98688.84;;;4.41;62.75
16544;BME280;8384;47.996;7.786;2022-12-07T14:45:45;98708.94;;;4.52;63.12
16544;BME280;8384;47.996;7.786;2022-12-07T14:48:15;98723.06;;;4.54;64.34
16544;BME280;8384;47.996;7.786;2022-12-07T14:50:44;98704.13;;;4.54;65.59
16544;BME280;8384;47.996;7.786;2022-12-07T14:53:16;98712.34;;;4.40;66.31
16544;BME280;8384;47.996;7.786;2022-12-07T14:55:42;98709.44;;;4.42;67.36
16544;BME280;8384;47.996;7.786;2022-12-07T14:58:17;98704.75;;;4.30;67.95
16544;BME280;8384;47.996;7.786;2022-12-07T15:00:43;98720.28;;;4.42;68.18
16544;BME280;8384;47.996;7.786;2022-12-07T15:03:08;98697.50;;;4.24;68.85
16544;BME280;8384;47.996;7.786;2022-12-07T15:05:34;98666.59;;;4.13;68.28
16544;BME280;8384;47.996;7.786;2022-12-07T15:08:00;98707.00;;;4.33;68.48
16544;BME280;8384;47.996;7.786;2022-12-07T15:10:28;98719.28;;;4.36;69.06
16544;BME280;8384;47.996;7.786;2022-12-07T15:12:55;98735.56;;;4.29;69.76
16544;BME280;8384;47.996;7.786;2022-12-07T15:15:44;98702.38;;;4.15;70.21